Time;durP1;ratioP1;P1;durP2;ratioP2;P2;SDS_P1;SDS_P2;PMS_P1;PMS_P2;Temp;Humidity;BMP_temperature;BMP_pressure;BME280_temperature;BME280_humidity;BME280_pressure;Samples;Min_cycle;Max_cycle;Signal;HPM_P1;HPM_P2
2021/01/15 00:01:38;;;;;;;14.27;7.20;;;1.40;99.90;;;;;;4998319;28;20181;-90
2021/01/15 00:04:04;;;;;;;9.57;7.30;;;1.40;99.90;;;;;;5011906;28;20238;-90
2021/01/15 00:06:30;;;;;;;9.57;7.90;;;1.30;99.90;;;;;;4994600;28;20197;-90
2021/01/15 00:08:56;;;;;;;10.70;8.27;;;1.40;99.90;;;;;;4999264;28;20279;-90
2021/01/15 00:11:24;;;;;;;9.83;7.33;;;1.30;99.90;;;;;;5015903;28;20625;-90
2021/01/15 00:13:51;;;;;;;9.53;8.20;;;1.40;99.90;;;;;;5013573;28;20166;-90
2021/01/15 00:16:22;;;;;;;12.20;7.83;;;1.30;99.90;;;;;;5016913;28;20200;-90
2021/01/15 00:18:49;;;;;;;12.60;8.47;;;1.30;99.90;;;;;;5015722;28;20164;-90
2021/01/15 00:21:19;;;;;;;13.47;8.20;;;1.30;99.90;;;;;;5011921;28;20178;-90
2021/01/15 00:23:45;;;;;;;7.73;6.93;;;1.40;99.90;;;;;;5013186;28;20260;-90
2021/01/15 00:26:21;;;;;;;11.43;8.20;;;1.30;99.90;;;;;;5001455;28;20208;-90
2021/01/15 00:28:47;;;;;;;9.60;8.70;;;1.40;99.90;;;;;;5015095;28;20172;-90
2021/01/15 00:31:13;;;;;;;11.47;8.07;;;1.40;99.90;;;;;;5012655;28;20187;-90
2021/01/15 00:33:39;;;;;;;17.03;8.57;;;1.40;99.90;;;;;;5001848;28;20177;-90
2021/01/15 00:36:06;;;;;;;12.23;8.37;;;1.40;99.90;;;;;;4994725;28;20177;-90
2021/01/15 00:38:32;;;;;;;9.00;7.47;;;1.30;99.90;;;;;;5000831;28;20611;-90
2021/01/15 00:41:03;;;;;;;15.73;9.07;;;1.20;99.90;;;;;;5003256;28;20183;-90
2021/01/15 00:43:29;;;;;;;13.43;8.17;;;1.20;99.90;;;;;;5021006;28;20199;-90
2021/01/15 00:45:55;;;;;;;11.23;8.80;;;1.20;99.90;;;;;;5033095;28;20172;-90
2021/01/15 00:48:20;;;;;;;14.27;9.03;;;1.10;99.90;;;;;;5019004;28;20187;-91
2021/01/15 00:50:47;;;;;;;12.47;9.13;;;1.20;99.90;;;;;;5031068;28;20233;-90
2021/01/15 00:53:15;;;;;;;14.47;8.80;;;1.20;99.90;;;;;;5014286;28;20271;-90
2021/01/15 00:55:41;;;;;;;12.23;8.87;;;1.20;99.90;;;;;;5014334;28;20173;-90
2021/01/15 00:58:10;;;;;;;18.83;9.33;;;1.30;99.90;;;;;;5014533;28;20176;-90
2021/01/15 01:00:38;;;;;;;13.40;9.33;;;1.30;99.90;;;;;;5014375;28;20177;-90
2021/01/15 01:03:06;;;;;;;19.70;9.10;;;1.30;99.90;;;;;;5028520;28;20236;-89
2021/01/15 01:05:32;;;;;;;16.07;9.70;;;1.30;99.90;;;;;;5031362;28;20189;-90
2021/01/15 01:07:58;;;;;;;12.10;9.50;;;1.20;99.90;;;;;;5005490;28;20212;-90
2021/01/15 01:10:24;;;;;;;14.93;9.67;;;1.20;99.90;;;;;;5013965;28;20526;-88
2021/01/15 01:12:49;;;;;;;13.77;9.87;;;1.10;99.90;;;;;;4997677;28;20168;-90
2021/01/15 01:15:15;;;;;;;16.97;10.30;;;1.00;99.90;;;;;;5013873;28;20610;-90
2021/01/15 01:17:42;;;;;;;12.53;9.73;;;1.00;99.90;;;;;;5013536;28;20235;-90
2021/01/15 01:20:10;;;;;;;19.73;10.30;;;1.00;99.90;;;;;;4997580;28;20176;-89
2021/01/15 01:22:37;;;;;;;15.37;10.43;;;1.00;99.90;;;;;;4991639;28;20224;-90
2021/01/15 01:25:03;;;;;;;13.90;9.97;;;1.00;99.90;;;;;;4978273;28;20177;-90
2021/01/15 01:27:29;;;;;;;18.83;10.80;;;1.10;99.90;;;;;;4995019;28;20233;-90
2021/01/15 01:29:55;;;;;;;16.20;10.83;;;1.10;99.90;;;;;;4982161;28;20200;-90
2021/01/15 01:32:21;;;;;;;11.50;10.20;;;1.10;99.90;;;;;;5021160;28;20687;-89
2021/01/15 01:34:46;;;;;;;18.27;10.47;;;1.00;99.90;;;;;;5015822;28;20201;-90
2021/01/15 01:37:12;;;;;;;12.03;10.00;;;1.00;99.90;;;;;;4997271;28;20191;-90
2021/01/15 01:39:40;;;;;;;20.03;11.47;;;1.00;99.90;;;;;;5013877;28;20176;-90
2021/01/15 01:42:06;;;;;;;18.10;10.33;;;1.10;99.90;;;;;;4983098;28;20173;-90
2021/01/15 01:44:32;;;;;;;15.43;9.87;;;1.00;99.90;;;;;;4993975;28;20180;-90
2021/01/15 01:46:59;;;;;;;15.87;10.30;;;1.00;99.90;;;;;;4993977;28;20225;-89
2021/01/15 01:49:25;;;;;;;15.80;10.73;;;0.90;99.90;;;;;;4994033;28;20269;-90
2021/01/15 01:51:52;;;;;;;17.23;10.43;;;0.90;99.90;;;;;;5006212;28;20181;-90
2021/01/15 01:54:19;;;;;;;20.03;10.93;;;0.90;99.90;;;;;;5013455;28;20618;-90
2021/01/15 01:56:44;;;;;;;12.83;9.93;;;0.90;99.90;;;;;;5013415;28;20204;-90
2021/01/15 01:59:13;;;;;;;15.57;10.67;;;0.90;99.90;;;;;;5013650;28;20208;-90
2021/01/15 02:01:39;;;;;;;16.30;9.93;;;1.00;99.90;;;;;;4997175;28;20183;-89
2021/01/15 02:04:06;;;;;;;16.37;9.70;;;1.00;99.90;;;;;;5016973;28;20219;-90
2021/01/15 02:06:32;;;;;;;14.30;10.83;;;0.90;99.90;;;;;;5016913;28;20291;-89
2021/01/15 02:08:58;;;;;;;18.60;10.10;;;0.90;99.90;;;;;;5017068;28;20169;-89
2021/01/15 02:12:09;;;;;;;15.80;10.20;;;0.90;99.90;;;;;;5016577;28;20187;-90
2021/01/15 02:15:06;;;;;;;15.03;9.73;;;0.90;99.90;;;;;;4996247;28;20228;-88
2021/01/15 02:17:40;;;;;;;14.20;9.63;;;0.80;99.90;;;;;;4999246;28;20649;-89
2021/01/15 02:20:30;;;;;;;19.33;10.20;;;0.90;99.90;;;;;;5006608;28;20172;-90
2021/01/15 02:23:19;;;;;;;16.80;9.80;;;0.80;99.90;;;;;;5017030;28;20585;-90
2021/01/15 02:26:13;;;;;;;16.33;9.63;;;0.90;99.90;;;;;;5015015;28;20276;-89
2021/01/15 02:29:10;;;;;;;14.20;9.57;;;0.90;99.90;;;;;;5015524;28;20180;-89
2021/01/15 02:31:45;;;;;;;15.37;9.90;;;0.90;99.90;;;;;;5018758;28;20169;-90
2021/01/15 02:34:42;;;;;;;16.30;9.77;;;0.90;99.90;;;;;;5017936;28;20179;-89
2021/01/15 02:37:12;;;;;;;16.30;9.77;;;0.90;99.90;;;;;;5017200;28;20272;-89
2021/01/15 02:40:05;;;;;;;17.10;9.80;;;0.80;99.90;;;;;;5016833;28;20590;-89
2021/01/15 02:42:38;;;;;;;22.30;10.67;;;0.80;99.90;;;;;;5016519;28;20172;-89
2021/01/15 02:45:13;;;;;;;16.60;9.90;;;0.70;99.90;;;;;;5017305;28;20180;-89
2021/01/15 02:47:50;;;;;;;17.83;10.13;;;0.80;99.90;;;;;;5021063;28;20200;-89
2021/01/15 02:50:21;;;;;;;12.37;9.57;;;0.80;99.90;;;;;;5018762;28;20172;-89
2021/01/15 02:52:47;;;;;;;17.03;10.10;;;0.80;99.90;;;;;;5016083;28;20223;-89
2021/01/15 02:55:14;;;;;;;19.33;10.63;;;0.90;99.90;;;;;;5017539;28;20193;-89
2021/01/15 02:57:40;;;;;;;15.60;10.30;;;0.90;99.90;;;;;;5016201;28;20183;-89
2021/01/15 03:00:11;;;;;;;13.30;10.67;;;0.80;99.90;;;;;;5016393;28;20259;-89
2021/01/15 03:02:45;;;;;;;20.60;10.80;;;0.80;99.90;;;;;;5016219;28;20526;-90
2021/01/15 03:05:28;;;;;;;20.53;10.10;;;0.80;99.90;;;;;;5016661;28;20569;-89
2021/01/15 03:07:55;;;;;;;14.57;10.83;;;0.80;99.90;;;;;;5016506;28;20196;-90
2021/01/15 03:10:24;;;;;;;14.93;11.33;;;0.80;99.90;;;;;;5018837;28;20208;-90
2021/01/15 03:12:52;;;;;;;18.73;11.70;;;0.80;99.90;;;;;;5030800;28;20185;-90
2021/01/15 03:15:19;;;;;;;14.57;11.43;;;0.90;99.90;;;;;;5034815;28;20169;-90
2021/01/15 03:17:50;;;;;;;21.83;12.90;;;1.00;99.90;;;;;;5020871;28;20169;-90
2021/01/15 03:20:17;;;;;;;16.47;11.63;;;1.00;99.90;;;;;;4999122;28;20692;-89
2021/01/15 03:22:46;;;;;;;18.07;12.80;;;1.10;99.90;;;;;;4980092;28;20296;-89
2021/01/15 03:25:15;;;;;;;21.53;13.80;;;1.10;99.90;;;;;;4996476;28;20173;-89
2021/01/15 03:27:49;;;;;;;23.70;13.70;;;1.00;99.90;;;;;;5012809;28;20197;-89
2021/01/15 03:30:21;;;;;;;17.13;13.00;;;1.00;99.90;;;;;;5026071;28;20169;-89
2021/01/15 03:32:50;;;;;;;22.73;14.13;;;1.00;99.90;;;;;;5033525;28;20168;-89
2021/01/15 03:35:25;;;;;;;22.40;14.33;;;0.90;99.90;;;;;;5028849;28;20192;-89
2021/01/15 03:38:02;;;;;;;22.93;14.73;;;0.90;99.90;;;;;;5018254;28;20152;-89
2021/01/15 03:40:38;;;;;;;30.10;15.20;;;0.90;99.90;;;;;;5014932;28;20621;-90
2021/01/15 03:43:23;;;;;;;25.10;15.60;;;1.00;99.90;;;;;;5015467;28;20259;-89
2021/01/15 03:45:50;;;;;;;27.37;16.73;;;0.90;99.90;;;;;;5015166;28;20165;-89
2021/01/15 03:48:17;;;;;;;29.83;16.43;;;0.90;99.90;;;;;;5015218;28;20584;-89
2021/01/15 03:50:43;;;;;;;26.47;16.00;;;0.90;99.90;;;;;;5015372;28;20181;-89
2021/01/15 03:53:13;;;;;;;30.27;16.67;;;0.90;99.90;;;;;;4999487;28;20173;-89
2021/01/15 03:55:39;;;;;;;33.13;17.50;;;0.90;99.90;;;;;;5015553;28;20200;-89
2021/01/15 03:58:04;;;;;;;29.83;17.63;;;0.90;99.90;;;;;;4999127;28;20216;-89
2021/01/15 04:00:30;;;;;;;30.00;18.13;;;0.80;99.90;;;;;;5015018;28;20181;-89
2021/01/15 04:07:59;;;;;;;27.13;16.90;;;0.80;99.90;;;;;;5014218;28;20554;-88
2021/01/15 04:10:25;;;;;;;30.80;17.03;;;0.90;99.90;;;;;;4998550;28;20169;-88
2021/01/15 04:12:53;;;;;;;39.47;18.27;;;0.90;99.90;;;;;;4983127;28;20173;-88
2021/01/15 04:15:19;;;;;;;27.90;16.03;;;0.90;99.90;;;;;;5017788;28;20321;-88
2021/01/15 04:17:45;;;;;;;35.03;16.93;;;0.90;99.90;;;;;;5001147;28;20273;-88
2021/01/15 04:20:13;;;;;;;29.17;16.70;;;0.90;99.90;;;;;;4991440;28;20184;-88
2021/01/15 04:22:40;;;;;;;33.57;16.20;;;0.90;99.90;;;;;;4985578;28;20219;-88
2021/01/15 04:25:09;;;;;;;29.30;16.70;;;0.80;99.90;;;;;;5001879;28;20150;-88
2021/01/15 04:27:36;;;;;;;28.47;16.80;;;0.80;99.90;;;;;;5002173;28;20224;-89
2021/01/15 04:30:04;;;;;;;26.17;15.80;;;0.80;99.90;;;;;;4986239;28;20170;-89
2021/01/15 04:32:31;;;;;;;26.60;14.67;;;0.80;99.90;;;;;;5002521;28;20168;-88
2021/01/15 04:34:57;;;;;;;26.67;15.30;;;0.80;99.90;;;;;;4980420;28;20173;-88
2021/01/15 04:37:22;;;;;;;23.43;15.23;;;0.90;99.90;;;;;;4977707;28;20263;-88
2021/01/15 04:39:48;;;;;;;29.93;16.23;;;0.90;99.90;;;;;;4997197;28;20666;-88
2021/01/15 04:42:15;;;;;;;26.47;15.20;;;0.90;99.90;;;;;;4962317;28;20181;-88
2021/01/15 04:44:42;;;;;;;24.23;15.47;;;0.80;99.90;;;;;;4978575;28;20169;-88
2021/01/15 04:47:09;;;;;;;24.50;14.93;;;0.90;99.90;;;;;;4996015;28;20228;-88
2021/01/15 04:49:38;;;;;;;23.73;14.77;;;1.00;99.90;;;;;;4995926;28;20641;-88
2021/01/15 04:52:13;;;;;;;27.23;16.37;;;1.10;99.90;;;;;;4977870;28;20268;-88
2021/01/15 04:54:49;;;;;;;23.07;14.83;;;1.00;99.90;;;;;;4979552;28;20173;-88
2021/01/15 04:57:18;;;;;;;24.70;14.10;;;0.90;99.90;;;;;;4978437;28;20201;-88
2021/01/15 04:59:48;;;;;;;23.50;13.80;;;0.80;99.90;;;;;;4980650;28;20592;-88
2021/01/15 05:02:16;;;;;;;22.87;14.57;;;0.70;99.90;;;;;;4979918;28;20184;-88
2021/01/15 05:04:42;;;;;;;22.00;14.67;;;0.70;99.90;;;;;;4980152;28;20181;-88
2021/01/15 05:07:09;;;;;;;21.20;13.73;;;0.80;99.90;;;;;;4980042;28;20217;-88
2021/01/15 05:09:47;;;;;;;21.60;14.43;;;0.90;99.90;;;;;;4980030;28;20196;-88
2021/01/15 05:12:15;;;;;;;20.27;13.80;;;0.90;99.90;;;;;;4980247;28;20173;-88
2021/01/15 05:14:48;;;;;;;21.87;13.13;;;1.00;99.90;;;;;;4980153;28;20173;-88
2021/01/15 05:17:16;;;;;;;21.43;13.30;;;1.10;99.90;;;;;;4997311;28;20181;-88
2021/01/15 05:19:45;;;;;;;23.17;12.37;;;1.20;99.90;;;;;;4970116;28;20264;-87
2021/01/15 05:22:13;;;;;;;19.87;12.37;;;1.20;99.90;;;;;;4991372;28;20181;-88
2021/01/15 05:24:39;;;;;;;17.87;12.53;;;1.10;99.90;;;;;;4967794;28;20186;-89
2021/01/15 05:30:12;;;;;;;22.30;12.57;;;1.10;99.90;;;;;;5015965;28;20300;-89
2021/01/15 05:32:41;;;;;;;17.73;12.73;;;1.20;99.90;;;;;;4998654;28;20192;-89
2021/01/15 05:35:08;;;;;;;17.87;12.73;;;1.10;99.90;;;;;;4999723;28;20165;-89
2021/01/15 05:37:34;;;;;;;19.90;12.60;;;1.20;99.90;;;;;;4979521;28;20177;-89
2021/01/15 05:40:00;;;;;;;16.63;11.07;;;1.20;99.90;;;;;;4976867;28;20184;-89
2021/01/15 05:42:25;;;;;;;21.63;12.80;;;1.10;99.90;;;;;;4999003;28;20188;-89
2021/01/15 05:44:51;;;;;;;21.43;13.50;;;1.10;99.90;;;;;;4998640;28;20256;-88
2021/01/15 05:47:17;;;;;;;16.00;11.23;;;1.20;99.90;;;;;;4998396;28;20204;-89
2021/01/15 05:49:58;;;;;;;23.63;12.43;;;1.10;99.90;;;;;;4999355;28;20173;-89
2021/01/15 05:52:23;;;;;;;18.00;11.63;;;1.20;99.90;;;;;;4997909;28;20177;-89
2021/01/15 05:54:54;;;;;;;23.57;13.30;;;1.20;99.90;;;;;;4997730;28;20558;-89
2021/01/15 05:57:26;;;;;;;20.57;13.30;;;1.20;99.90;;;;;;5016642;28;20157;-88
2021/01/15 05:59:52;;;;;;;22.80;12.60;;;1.30;99.90;;;;;;5005765;28;20172;-88
2021/01/15 06:02:17;;;;;;;14.17;10.87;;;1.30;99.90;;;;;;4996121;28;20180;-89
2021/01/15 06:04:44;;;;;;;16.07;11.13;;;1.30;99.90;;;;;;5021186;28;20188;-89
2021/01/15 06:07:13;;;;;;;16.67;11.67;;;1.50;99.90;;;;;;5001736;28;20226;-89
2021/01/15 06:09:44;;;;;;;18.00;10.93;;;1.60;99.90;;;;;;5001942;28;20169;-89
2021/01/15 06:12:11;;;;;;;16.50;12.10;;;1.60;99.90;;;;;;5001590;28;20172;-89
2021/01/15 06:14:49;;;;;;;19.17;11.40;;;1.80;99.90;;;;;;5001845;28;20183;-89
2021/01/15 06:17:17;;;;;;;17.03;11.83;;;2.00;99.90;;;;;;5008500;28;20181;-89
2021/01/15 06:19:51;;;;;;;16.53;12.30;;;2.00;99.90;;;;;;5015557;28;20172;-90
2021/01/15 06:22:54;;;;;;;17.03;11.27;;;2.00;99.90;;;;;;5010636;28;20219;-89
2021/01/15 06:25:29;;;;;;;18.83;12.40;;;1.90;99.90;;;;;;5018339;28;20157;-89
2021/01/15 06:28:01;;;;;;;22.07;12.40;;;2.00;99.90;;;;;;5001365;28;20660;-89
2021/01/15 06:30:37;;;;;;;18.57;10.93;;;2.00;99.90;;;;;;5001242;28;20176;-88
2021/01/15 06:33:08;;;;;;;16.70;11.10;;;1.90;99.90;;;;;;5018238;28;20172;-89
2021/01/15 06:35:36;;;;;;;16.40;11.87;;;1.90;99.90;;;;;;5017955;28;20172;-89
2021/01/15 06:38:01;;;;;;;14.23;11.70;;;1.90;99.90;;;;;;5000384;28;20180;-88
2021/01/15 06:40:44;;;;;;;17.70;12.27;;;1.90;99.90;;;;;;5000648;28;20176;-90
2021/01/15 06:43:12;;;;;;;21.20;13.03;;;2.00;99.90;;;;;;5000303;28;20180;-90
2021/01/15 06:45:49;;;;;;;16.63;12.43;;;2.10;99.90;;;;;;5000809;28;20176;-90
2021/01/15 06:48:21;;;;;;;21.33;11.93;;;2.00;99.90;;;;;;4980918;28;20188;-90
2021/01/15 06:50:54;;;;;;;14.43;11.13;;;2.00;99.90;;;;;;4980994;28;20170;-90
2021/01/15 06:53:27;;;;;;;17.70;11.97;;;1.90;99.90;;;;;;4987883;28;20165;-90
2021/01/15 06:55:58;;;;;;;18.30;11.60;;;1.90;99.90;;;;;;5000344;28;20173;-91
2021/01/15 06:58:37;;;;;;;13.63;10.80;;;1.80;99.90;;;;;;5000104;28;20180;-90
2021/01/15 07:01:23;;;;;;;16.30;11.33;;;1.70;99.90;;;;;;5001501;28;20567;-90
2021/01/15 07:04:07;;;;;;;18.70;11.43;;;1.60;99.90;;;;;;5000745;28;20161;-90
2021/01/15 07:06:34;;;;;;;19.23;12.03;;;1.80;99.90;;;;;;5016617;28;20216;-91
2021/01/15 07:09:08;;;;;;;15.00;11.60;;;2.00;99.90;;;;;;5017327;28;20204;-90
2021/01/15 07:11:38;;;;;;;16.53;11.13;;;2.10;99.90;;;;;;5000026;28;20182;-92
2021/01/15 07:14:04;;;;;;;20.40;12.43;;;2.20;99.90;;;;;;4989115;28;20309;-90
2021/01/15 07:16:32;;;;;;;17.97;11.60;;;2.30;99.90;;;;;;4979578;28;20224;-89
2021/01/15 07:19:11;;;;;;;17.27;11.77;;;2.40;99.90;;;;;;4980212;28;20174;-90
2021/01/15 07:21:39;;;;;;;17.90;11.47;;;2.40;99.90;;;;;;4980826;28;20177;-89
2021/01/15 07:24:11;;;;;;;16.77;11.53;;;2.30;99.90;;;;;;4980237;28;20177;-90
2021/01/15 07:26:40;;;;;;;17.00;10.90;;;2.30;99.90;;;;;;4997495;28;20279;-90
2021/01/15 07:29:15;;;;;;;13.80;10.57;;;2.20;99.90;;;;;;4980206;28;20320;-90
2021/01/15 07:31:45;;;;;;;14.37;11.07;;;2.20;99.90;;;;;;4979960;28;20161;-90
2021/01/15 07:34:26;;;;;;;16.40;10.90;;;2.30;99.90;;;;;;4980174;28;20161;-90
2021/01/15 07:36:52;;;;;;;17.30;11.07;;;2.20;99.90;;;;;;4979936;28;20181;-91
2021/01/15 07:39:22;;;;;;;16.57;12.00;;;2.20;99.90;;;;;;4984678;28;20185;-90
2021/01/15 07:41:57;;;;;;;24.90;12.40;;;2.30;99.90;;;;;;4991884;28;20256;-91
2021/01/15 07:44:23;;;;;;;14.90;10.63;;;2.50;99.90;;;;;;5001050;28;20172;-91
2021/01/15 07:46:53;;;;;;;17.80;11.70;;;2.50;99.90;;;;;;5000151;28;20224;-91
2021/01/15 07:49:21;;;;;;;18.77;11.73;;;2.60;99.90;;;;;;4984023;28;20196;-91
2021/01/15 07:52:06;;;;;;;14.63;11.10;;;2.70;99.90;;;;;;5000757;28;20227;-91
2021/01/15 07:54:50;;;;;;;14.83;11.27;;;2.80;99.90;;;;;;4999451;28;20219;-91
2021/01/15 07:57:20;;;;;;;17.53;11.23;;;2.80;99.90;;;;;;5016602;28;20164;-91
2021/01/15 07:59:46;;;;;;;13.63;11.00;;;2.90;99.90;;;;;;4999863;28;20256;-91
2021/01/15 08:02:16;;;;;;;23.37;11.03;;;2.90;99.90;;;;;;4984436;28;20621;-90
2021/01/15 08:04:42;;;;;;;18.03;10.83;;;2.90;99.90;;;;;;5000068;28;20220;-91
2021/01/15 08:07:31;;;;;;;16.33;11.10;;;2.80;99.90;;;;;;4983240;28;20216;-91
2021/01/15 08:09:57;;;;;;;18.50;11.10;;;2.80;99.90;;;;;;4991762;28;20224;-91
2021/01/15 08:12:23;;;;;;;14.50;11.17;;;2.70;99.90;;;;;;4994983;28;20172;-91
2021/01/15 08:14:48;;;;;;;14.10;11.47;;;2.80;99.90;;;;;;4984010;28;20173;-91
2021/01/15 08:17:24;;;;;;;14.13;10.70;;;2.70;99.90;;;;;;5019839;28;20177;-91
2021/01/15 08:19:50;;;;;;;13.23;10.43;;;2.80;99.90;;;;;;4986570;28;20176;-91
2021/01/15 08:22:16;;;;;;;14.93;11.03;;;2.80;99.90;;;;;;4999862;28;20637;-91
2021/01/15 08:24:46;;;;;;;13.80;10.70;;;2.90;99.90;;;;;;5001068;28;20176;-91
2021/01/15 08:27:34;;;;;;;13.23;11.03;;;3.00;99.90;;;;;;5013145;28;20247;-91
2021/01/15 08:30:06;;;;;;;22.73;12.27;;;3.10;99.90;;;;;;5016803;28;20173;-91
2021/01/15 08:32:41;;;;;;;13.80;10.77;;;3.20;99.90;;;;;;5004741;28;20173;-91
2021/01/15 08:35:10;;;;;;;16.07;10.40;;;3.20;99.90;;;;;;4999155;28;20164;-91
2021/01/15 08:37:36;;;;;;;15.97;11.30;;;3.10;99.90;;;;;;4996563;28;20212;-91
2021/01/15 08:40:02;;;;;;;13.33;10.30;;;3.20;99.90;;;;;;4982527;28;20177;-91
2021/01/15 08:42:31;;;;;;;12.30;10.60;;;3.30;99.90;;;;;;4984441;28;20177;-91
2021/01/15 08:44:59;;;;;;;18.43;11.03;;;3.40;99.90;;;;;;5013411;28;20199;-90
2021/01/15 08:47:25;;;;;;;19.57;10.77;;;3.30;99.90;;;;;;5013164;28;20272;-91
2021/01/15 08:49:58;;;;;;;19.60;11.07;;;3.30;99.90;;;;;;5000429;28;20200;-91
2021/01/15 08:52:25;;;;;;;12.97;11.53;;;3.30;99.90;;;;;;4999146;28;20168;-90
2021/01/15 08:54:52;;;;;;;15.57;11.30;;;3.20;99.90;;;;;;4999590;28;20179;-92
2021/01/15 08:57:28;;;;;;;12.67;10.17;;;3.20;99.90;;;;;;4999546;28;20239;-90
2021/01/15 08:59:54;;;;;;;18.60;12.03;;;3.20;99.90;;;;;;4997906;28;20169;-91
2021/01/15 09:02:22;;;;;;;13.67;10.87;;;3.20;99.90;;;;;;5001682;28;20173;-91
2021/01/15 09:04:50;;;;;;;13.23;10.97;;;3.40;99.90;;;;;;5003085;28;20181;-91
2021/01/15 09:07:17;;;;;;;14.13;11.00;;;3.40;99.90;;;;;;5004043;28;20315;-91
2021/01/15 09:09:44;;;;;;;17.80;11.03;;;3.40;99.90;;;;;;4994574;28;20176;-91
2021/01/15 09:12:10;;;;;;;15.67;11.63;;;3.60;99.90;;;;;;4984478;28;20165;-91
2021/01/15 09:14:38;;;;;;;18.23;11.00;;;3.60;99.90;;;;;;4983153;28;20165;-90
2021/01/15 09:17:08;;;;;;;19.37;11.60;;;3.60;99.90;;;;;;4984294;28;20173;-90
2021/01/15 09:19:35;;;;;;;16.63;11.50;;;3.70;99.90;;;;;;4978356;28;20228;-91
2021/01/15 09:22:07;;;;;;;13.50;11.23;;;3.50;99.90;;;;;;4979726;28;20170;-91
2021/01/15 09:24:35;;;;;;;16.37;12.50;;;3.60;99.90;;;;;;4985008;28;20234;-91
2021/01/15 09:27:03;;;;;;;13.43;11.50;;;3.80;99.90;;;;;;4999442;28;20198;-91
2021/01/15 09:29:29;;;;;;;17.53;11.70;;;3.80;99.90;;;;;;4999610;28;20200;-91
2021/01/15 09:31:56;;;;;;;14.67;10.63;;;3.90;99.90;;;;;;5015682;28;20177;-91
2021/01/15 09:34:24;;;;;;;18.00;11.73;;;3.60;99.90;;;;;;4998218;28;20173;-90
2021/01/15 09:36:51;;;;;;;15.77;11.53;;;3.70;99.90;;;;;;4998844;28;20238;-91
2021/01/15 09:39:18;;;;;;;18.37;12.17;;;3.80;99.90;;;;;;4997560;28;20177;-91
2021/01/15 09:41:47;;;;;;;19.53;11.60;;;3.80;99.90;;;;;;5001270;28;20178;-91
2021/01/15 09:44:36;;;;;;;14.97;11.53;;;4.10;99.90;;;;;;5003210;28;20315;-91
2021/01/15 09:47:06;;;;;;;20.33;11.87;;;4.20;99.90;;;;;;4978789;28;20689;-91
2021/01/15 09:49:33;;;;;;;13.97;11.00;;;4.20;99.90;;;;;;4979149;28;20723;-91
2021/01/15 09:52:00;;;;;;;13.77;11.30;;;4.20;99.90;;;;;;4979391;28;20252;-91
2021/01/15 09:54:26;;;;;;;17.33;10.87;;;4.10;99.90;;;;;;4978096;28;20181;-91
2021/01/15 09:56:52;;;;;;;13.97;11.83;;;4.00;99.90;;;;;;4977983;28;20258;-91
2021/01/15 09:59:19;;;;;;;12.77;10.80;;;3.90;99.90;;;;;;4978059;28;20189;-91
2021/01/15 10:01:47;;;;;;;13.83;11.30;;;4.00;99.90;;;;;;4977795;28;20276;-91
2021/01/15 10:04:15;;;;;;;15.33;11.13;;;3.90;99.90;;;;;;4977209;28;20261;-90
2021/01/15 10:06:46;;;;;;;20.27;11.87;;;4.00;99.90;;;;;;4976659;28;20224;-91
2021/01/15 10:09:13;;;;;;;18.37;11.43;;;4.10;99.90;;;;;;4976988;28;20199;-91
2021/01/15 10:11:44;;;;;;;13.83;11.03;;;4.30;99.90;;;;;;4979512;28;20212;-91
2021/01/15 10:14:16;;;;;;;16.63;11.70;;;4.60;99.90;;;;;;4994497;28;20526;-91
2021/01/15 10:16:44;;;;;;;13.73;11.67;;;4.70;99.90;;;;;;4979273;28;20188;-91
2021/01/15 10:19:10;;;;;;;15.60;12.07;;;4.80;99.90;;;;;;4977157;28;20178;-91
2021/01/15 10:21:39;;;;;;;19.00;11.97;;;4.90;99.90;;;;;;4977321;28;20178;-91
2021/01/15 10:24:06;;;;;;;15.57;12.17;;;4.70;99.90;;;;;;4993892;28;20181;-91
2021/01/15 10:26:34;;;;;;;15.53;11.97;;;4.60;99.90;;;;;;4994895;28;20570;-91
2021/01/15 10:29:03;;;;;;;17.70;12.77;;;4.60;99.90;;;;;;4993843;28;20184;-91
2021/01/15 10:31:32;;;;;;;17.77;12.00;;;4.50;99.90;;;;;;4997669;28;20180;-88
2021/01/15 10:33:59;;;;;;;15.53;11.37;;;4.60;99.90;;;;;;4996029;28;20176;-88
2021/01/15 10:36:28;;;;;;;16.17;12.67;;;4.70;99.90;;;;;;4996759;28;20173;-89
2021/01/15 10:38:55;;;;;;;19.03;12.17;;;4.70;99.90;;;;;;4995037;28;20173;-89
2021/01/15 10:41:35;;;;;;;17.50;13.33;;;4.80;99.90;;;;;;5003922;28;20173;-89
2021/01/15 10:44:02;;;;;;;16.53;12.00;;;4.90;99.90;;;;;;5003695;28;20256;-88
2021/01/15 10:46:39;;;;;;;17.37;12.50;;;4.90;99.90;;;;;;4988139;28;20212;-88
2021/01/15 10:49:09;;;;;;;14.47;12.07;;;5.00;99.90;;;;;;5022560;28;20160;-88
2021/01/15 10:51:39;;;;;;;22.43;12.93;;;5.10;99.90;;;;;;5009623;28;20267;-88
2021/01/15 10:54:08;;;;;;;20.07;12.90;;;5.20;99.90;;;;;;5017230;28;20173;-89
2021/01/15 10:56:45;;;;;;;17.27;12.60;;;5.20;99.90;;;;;;5022681;28;20161;-90
2021/01/15 10:59:12;;;;;;;18.70;12.53;;;4.90;99.90;;;;;;5021347;28;20183;-89
2021/01/15 11:01:39;;;;;;;16.17;12.63;;;4.80;99.90;;;;;;5008930;28;20173;-89
2021/01/15 11:04:11;;;;;;;14.43;12.50;;;5.00;99.90;;;;;;5009026;28;20240;-90
2021/01/15 11:06:38;;;;;;;17.23;12.80;;;4.90;99.90;;;;;;5009101;28;20212;-89
2021/01/15 11:09:09;;;;;;;18.10;13.23;;;5.10;99.90;;;;;;5007756;28;20173;-89
2021/01/15 11:11:35;;;;;;;17.37;13.47;;;5.40;99.90;;;;;;5018124;28;20181;-90
2021/01/15 11:14:01;;;;;;;22.43;12.70;;;5.60;99.90;;;;;;5005057;28;20157;-92
2021/01/15 11:16:27;;;;;;;13.87;12.07;;;5.40;99.90;;;;;;5020054;28;20637;-90
2021/01/15 11:18:53;;;;;;;15.90;12.73;;;5.40;99.90;;;;;;4993651;28;20177;-91
2021/01/15 11:21:26;;;;;;;16.00;12.30;;;5.40;99.90;;;;;;5008217;28;20177;-91
2021/01/15 11:23:53;;;;;;;15.83;12.73;;;5.30;99.90;;;;;;5009008;28;20172;-91
2021/01/15 11:26:26;;;;;;;18.30;13.33;;;5.30;99.90;;;;;;4989188;28;20181;-85
2021/01/15 11:28:53;;;;;;;22.20;15.10;;;5.30;99.90;;;;;;5025267;28;20173;-91
2021/01/15 11:31:19;;;;;;;18.53;13.50;;;5.40;99.90;;;;;;4993031;28;20311;-90
2021/01/15 11:33:45;;;;;;;18.30;12.17;;;5.40;99.90;;;;;;5005673;28;20195;-90
2021/01/15 11:36:12;;;;;;;16.53;12.40;;;5.50;99.90;;;;;;5004853;28;20168;-91
2021/01/15 11:38:38;;;;;;;18.13;13.47;;;5.60;99.90;;;;;;5020632;28;20176;-92
2021/01/15 11:41:04;;;;;;;17.13;13.70;;;5.70;99.90;;;;;;5001046;28;20216;-92
2021/01/15 11:43:37;;;;;;;17.67;12.53;;;5.60;99.90;;;;;;5019011;28;20165;-89
2021/01/15 11:46:07;;;;;;;14.53;12.50;;;5.70;99.90;;;;;;5016252;28;20168;-91
2021/01/15 11:48:33;;;;;;;18.93;13.10;;;5.80;99.90;;;;;;5010968;28;20181;-90
2021/01/15 11:51:00;;;;;;;15.10;12.40;;;5.60;99.90;;;;;;5015811;28;20221;-89
2021/01/15 11:53:26;;;;;;;19.10;13.37;;;5.70;99.90;;;;;;5019396;28;20236;-90
2021/01/15 11:55:53;;;;;;;23.87;12.80;;;5.80;99.90;;;;;;5013091;28;20167;-90
2021/01/15 11:58:22;;;;;;;22.43;13.33;;;5.80;99.90;;;;;;5021890;28;20196;-91
2021/01/15 12:00:48;;;;;;;19.03;13.03;;;5.80;99.90;;;;;;5022378;28;20176;-91
2021/01/15 12:03:14;;;;;;;20.33;13.00;;;5.70;99.90;;;;;;5015963;28;20188;-82
2021/01/15 12:05:44;;;;;;;18.07;14.07;;;5.80;99.90;;;;;;4978029;28;20182;-79
2021/01/15 12:08:10;;;;;;;19.77;13.07;;;5.90;99.90;;;;;;4994339;28;20303;-80
2021/01/15 12:10:36;;;;;;;22.00;13.40;;;5.90;99.90;;;;;;5007935;28;20269;-80
2021/01/15 12:13:02;;;;;;;19.03;13.50;;;5.90;99.90;;;;;;5014613;28;20584;-79
2021/01/15 12:15:28;;;;;;;17.07;13.20;;;5.90;99.90;;;;;;4991011;28;20170;-79
2021/01/15 12:17:54;;;;;;;20.77;13.70;;;5.80;99.90;;;;;;4978833;28;20188;-79
2021/01/15 12:20:20;;;;;;;17.80;12.97;;;5.70;99.90;;;;;;4995524;28;20212;-78
2021/01/15 12:22:48;;;;;;;21.17;12.47;;;5.70;99.90;;;;;;4978066;28;20181;-78
2021/01/15 12:25:14;;;;;;;20.33;13.80;;;5.40;99.90;;;;;;5000100;28;20188;-79
2021/01/15 12:27:39;;;;;;;21.43;13.50;;;5.40;99.90;;;;;;5014449;28;20205;-79
2021/01/15 12:30:07;;;;;;;23.60;13.80;;;5.40;99.90;;;;;;4997578;28;20179;-78
2021/01/15 12:32:33;;;;;;;16.10;12.63;;;5.40;99.90;;;;;;4997274;28;20164;-78
2021/01/15 12:34:59;;;;;;;18.27;13.23;;;5.40;99.90;;;;;;5012358;28;20189;-81
2021/01/15 12:37:29;;;;;;;18.07;12.63;;;5.40;99.90;;;;;;4985555;28;20246;-79
2021/01/15 12:39:55;;;;;;;19.67;13.53;;;5.30;99.90;;;;;;4996306;28;20641;-78
2021/01/15 12:42:21;;;;;;;15.70;13.00;;;5.20;99.90;;;;;;5014278;28;20562;-78
2021/01/15 12:44:47;;;;;;;19.87;12.90;;;5.40;99.90;;;;;;4995899;28;20200;-79
2021/01/15 12:47:13;;;;;;;18.20;12.97;;;5.40;99.90;;;;;;4994340;28;20203;-79
2021/01/15 12:49:39;;;;;;;19.67;14.13;;;5.40;99.90;;;;;;4995277;28;20533;-80
2021/01/15 12:52:04;;;;;;;18.83;13.20;;;5.50;99.90;;;;;;4995251;28;20251;-79
2021/01/15 12:54:30;;;;;;;22.53;14.30;;;5.80;99.90;;;;;;4995409;28;20610;-79
2021/01/15 12:56:56;;;;;;;21.40;13.47;;;6.00;99.90;;;;;;5012168;28;20180;-78
2021/01/15 12:59:21;;;;;;;27.50;14.17;;;6.10;99.90;;;;;;5014059;28;20596;-79